Time;durP1;ratioP1;P1;durP2;ratioP2;P2;SDS_P1;SDS_P2;PMS_P1;PMS_P2;Temp;Humidity;BMP_temperature;BMP_pressure;BME280_temperature;BME280_humidity;BME280_pressure;Samples;Min_cycle;Max_cycle;Signal;HPM_P1;HPM_P2
2022/11/30 00:01:22;;;;;;;;;;;14.00;63.70;;;;;;5015170;28;19917;-86
2022/11/30 00:03:50;;;;;;;;;;;14.00;63.80;;;;;;5014470;28;20548;-90
2022/11/30 00:06:21;;;;;;;;;;;14.00;63.80;;;;;;5031622;28;19964;-86
2022/11/30 00:08:47;;;;;;;;;;;14.10;63.90;;;;;;5031590;28;19975;-87
2022/11/30 00:11:14;;;;;;;;;;;14.10;63.80;;;;;;5014553;28;19929;-87
2022/11/30 00:13:40;;;;;;;;;;;14.10;63.90;;;;;;5031647;28;19979;-87
2022/11/30 00:16:07;;;;;;;;;;;14.10;63.80;;;;;;5009692;28;19947;-88
2022/11/30 00:18:32;;;;;;;;;;;14.10;63.80;;;;;;5014356;28;19913;-86
2022/11/30 00:21:02;;;;;;;;;;;14.10;63.70;;;;;;5013963;28;19924;-88
2022/11/30 00:23:35;;;;;;;;;;;14.10;63.80;;;;;;5013729;28;19955;-88
2022/11/30 00:26:01;;;;;;;;;;;14.20;63.70;;;;;;5013061;28;19964;-89
2022/11/30 00:28:30;;;;;;;;;;;14.20;63.70;;;;;;5013816;28;19909;-87
2022/11/30 00:30:56;;;;;;;;;;;14.20;63.70;;;;;;5013317;28;19940;-89
2022/11/30 00:33:22;;;;;;;;;;;14.20;63.60;;;;;;5015455;28;20339;-87
2022/11/30 00:35:57;;;;;;;;;;;14.20;63.40;;;;;;5002679;28;20296;-88
2022/11/30 00:38:24;;;;;;;;;;;14.10;63.10;;;;;;5011975;28;19941;-88
2022/11/30 00:40:49;;;;;;;;;;;14.10;63.20;;;;;;4994324;28;19918;-89
2022/11/30 00:43:15;;;;;;;;;;;14.10;63.40;;;;;;5010267;28;19914;-87
2022/11/30 00:45:40;;;;;;;;;;;14.10;63.30;;;;;;5031276;28;19921;-87
2022/11/30 00:48:06;;;;;;;;;;;14.10;63.20;;;;;;5009317;28;19917;-87
2022/11/30 00:50:31;;;;;;;;;;;14.00;63.20;;;;;;5013588;28;19925;-87
2022/11/30 00:52:57;;;;;;;;;;;14.00;63.30;;;;;;5030333;28;19917;-86
2022/11/30 00:55:22;;;;;;;;;;;14.00;63.40;;;;;;5033416;28;19956;-89
2022/11/30 00:57:48;;;;;;;;;;;14.00;63.30;;;;;;5013757;28;19984;-88
2022/11/30 01:00:14;;;;;;;;;;;14.00;63.40;;;;;;5014277;28;20356;-87
2022/11/30 01:02:39;;;;;;;;;;;14.00;63.40;;;;;;5013371;28;19923;-89
2022/11/30 01:05:05;;;;;;;;;;;14.00;63.40;;;;;;5030557;28;20015;-89
2022/11/30 01:07:30;;;;;;;;;;;14.00;63.40;;;;;;5013524;28;19979;-89
2022/11/30 01:09:56;;;;;;;;;;;14.00;63.50;;;;;;5016116;28;19913;-89
2022/11/30 01:12:22;;;;;;;;;;;14.00;63.40;;;;;;5030098;28;19971;-87
2022/11/30 01:14:47;;;;;;;;;;;14.00;63.30;;;;;;5017187;28;19920;-86
2022/11/30 01:17:13;;;;;;;;;;;14.00;63.30;;;;;;5013605;28;20432;-90
2022/11/30 01:19:39;;;;;;;;;;;14.00;63.30;;;;;;5012221;28;20000;-89
2022/11/30 01:22:07;;;;;;;;;;;13.90;63.30;;;;;;4993563;28;19909;-88
2022/11/30 01:24:38;;;;;;;;;;;13.90;63.20;;;;;;5023881;28;20360;-88
2022/11/30 01:27:04;;;;;;;;;;;13.80;63.10;;;;;;5019508;28;19916;-87
2022/11/30 01:29:29;;;;;;;;;;;13.80;63.30;;;;;;5035323;28;20601;-87
2022/11/30 01:31:55;;;;;;;;;;;13.80;63.30;;;;;;5017095;28;19926;-87
2022/11/30 01:34:20;;;;;;;;;;;13.80;63.40;;;;;;5027288;28;19917;-87
2022/11/30 01:36:47;;;;;;;;;;;13.80;63.60;;;;;;5033790;28;19913;-89
2022/11/30 01:39:12;;;;;;;;;;;13.80;63.40;;;;;;5016223;28;19913;-89
2022/11/30 01:41:38;;;;;;;;;;;13.80;63.50;;;;;;5016471;28;19928;-87
2022/11/30 01:44:06;;;;;;;;;;;13.80;63.50;;;;;;5016727;28;19948;-89
2022/11/30 01:46:40;;;;;;;;;;;13.80;63.40;;;;;;5016350;28;19921;-88
2022/11/30 01:49:09;;;;;;;;;;;13.80;63.30;;;;;;5017692;28;19913;-88
2022/11/30 01:51:38;;;;;;;;;;;13.80;63.40;;;;;;5017637;28;19921;-89
2022/11/30 01:54:05;;;;;;;;;;;13.80;63.50;;;;;;5015655;28;20378;-89
2022/11/30 01:56:31;;;;;;;;;;;13.80;63.50;;;;;;5016688;28;20354;-89
2022/11/30 01:58:57;;;;;;;;;;;13.80;63.50;;;;;;5015809;28;19910;-89
2022/11/30 02:01:24;;;;;;;;;;;13.80;63.60;;;;;;5015266;28;20394;-88
2022/11/30 02:03:56;;;;;;;;;;;13.80;63.60;;;;;;5034530;28;19996;-88
2022/11/30 02:06:22;;;;;;;;;;;13.90;63.60;;;;;;5014540;28;20617;-87
2022/11/30 02:08:48;;;;;;;;;;;13.80;63.50;;;;;;5016119;28;19917;-88
2022/11/30 02:11:14;;;;;;;;;;;13.90;63.50;;;;;;5017678;28;19926;-90
2022/11/30 02:14:01;;;;;;;;;;;13.90;63.50;;;;;;5034521;28;19913;-89
2022/11/30 02:16:42;;;;;;;;;;;13.90;63.40;;;;;;5014722;28;19918;-89
2022/11/30 02:19:14;;;;;;;;;;;13.90;63.50;;;;;;5032716;28;19992;-87
2022/11/30 02:21:58;;;;;;;;;;;13.80;63.40;;;;;;5012612;28;19924;-90
2022/11/30 02:24:27;;;;;;;;;;;13.80;63.50;;;;;;5014288;28;19925;-90
2022/11/30 02:26:55;;;;;;;;;;;13.80;63.40;;;;;;5027334;28;19917;-87
2022/11/30 02:29:23;;;;;;;;;;;13.80;63.50;;;;;;5014816;28;19913;-89
2022/11/30 02:32:04;;;;;;;;;;;13.70;63.40;;;;;;5034891;28;19956;-88
2022/11/30 02:34:31;;;;;;;;;;;13.70;63.30;;;;;;5016098;28;19917;-89
2022/11/30 02:37:00;;;;;;;;;;;13.60;63.30;;;;;;5032698;28;19913;-89
2022/11/30 02:39:26;;;;;;;;;;;13.60;63.20;;;;;;5014561;28;19921;-90
2022/11/30 02:41:52;;;;;;;;;;;13.50;63.30;;;;;;5015200;28;19988;-89
2022/11/30 02:44:22;;;;;;;;;;;13.50;63.40;;;;;;5015696;28;19925;-88
2022/11/30 02:46:47;;;;;;;;;;;13.40;63.50;;;;;;5012486;28;20286;-87
2022/11/30 02:49:19;;;;;;;;;;;13.40;63.70;;;;;;5013291;28;19909;-88
2022/11/30 02:51:45;;;;;;;;;;;13.40;63.90;;;;;;5016387;28;19925;-90
2022/11/30 02:54:11;;;;;;;;;;;13.40;64.00;;;;;;5015168;28;19916;-89
2022/11/30 02:56:36;;;;;;;;;;;13.50;64.00;;;;;;5017350;28;19913;-90
2022/11/30 02:59:02;;;;;;;;;;;13.40;64.00;;;;;;5053275;28;19920;-87
2022/11/30 03:01:28;;;;;;;;;;;13.50;64.00;;;;;;5035390;28;19996;-89
2022/11/30 03:03:53;;;;;;;;;;;13.40;64.00;;;;;;5034359;28;19921;-89
2022/11/30 03:06:19;;;;;;;;;;;13.50;64.00;;;;;;5015155;28;19921;-88
2022/11/30 03:08:44;;;;;;;;;;;13.50;64.00;;;;;;5015564;28;20378;-89
2022/11/30 03:11:10;;;;;;;;;;;13.50;64.00;;;;;;5015133;28;19925;-86
2022/11/30 03:13:35;;;;;;;;;;;13.50;64.00;;;;;;5032885;28;19925;-86
2022/11/30 03:16:05;;;;;;;;;;;13.50;64.00;;;;;;5010963;28;19917;-89
2022/11/30 03:18:31;;;;;;;;;;;13.50;64.10;;;;;;5015028;28;19920;-88
2022/11/30 03:20:57;;;;;;;;;;;13.50;64.00;;;;;;5014711;28;19917;-88
2022/11/30 03:23:22;;;;;;;;;;;13.50;63.90;;;;;;5015064;28;19988;-88
2022/11/30 03:25:48;;;;;;;;;;;13.50;63.80;;;;;;5015731;28;19986;-89
2022/11/30 03:28:13;;;;;;;;;;;13.50;63.90;;;;;;5033685;28;19966;-87
2022/11/30 03:30:39;;;;;;;;;;;13.50;63.90;;;;;;5032690;28;19922;-87
2022/11/30 03:33:04;;;;;;;;;;;13.50;63.90;;;;;;5013004;28;19909;-86
2022/11/30 03:35:30;;;;;;;;;;;13.40;63.90;;;;;;5052533;28;19924;-89
2022/11/30 03:37:56;;;;;;;;;;;13.40;63.90;;;;;;5034678;28;19979;-88
2022/11/30 03:40:22;;;;;;;;;;;13.50;64.10;;;;;;5014189;28;19917;-89
2022/11/30 03:42:47;;;;;;;;;;;13.50;64.10;;;;;;5014269;28;19917;-89
2022/11/30 03:45:13;;;;;;;;;;;13.50;64.10;;;;;;5013565;28;19924;-87
2022/11/30 03:47:38;;;;;;;;;;;13.50;64.10;;;;;;5014307;28;19910;-89
2022/11/30 03:50:07;;;;;;;;;;;13.50;64.10;;;;;;5006507;28;19922;-87
2022/11/30 03:52:32;;;;;;;;;;;13.50;64.10;;;;;;4996246;28;19964;-88
2022/11/30 03:54:58;;;;;;;;;;;13.50;64.10;;;;;;5013188;28;19960;-87
2022/11/30 03:57:23;;;;;;;;;;;13.60;64.10;;;;;;4994472;28;19972;-87
2022/11/30 03:59:49;;;;;;;;;;;13.60;64.10;;;;;;4995005;28;19918;-86
2022/11/30 04:02:15;;;;;;;;;;;13.60;64.10;;;;;;5002356;28;19910;-87
2022/11/30 04:04:40;;;;;;;;;;;13.60;64.00;;;;;;5014352;28;19944;-88
2022/11/30 04:07:06;;;;;;;;;;;13.60;63.90;;;;;;5013919;28;19948;-89
2022/11/30 04:09:31;;;;;;;;;;;13.60;63.80;;;;;;5014165;28;19963;-89
2022/11/30 04:11:57;;;;;;;;;;;13.50;63.70;;;;;;5031503;28;20339;-88
2022/11/30 04:14:23;;;;;;;;;;;13.50;63.70;;;;;;5014054;28;19917;-88
2022/11/30 04:16:48;;;;;;;;;;;13.50;63.80;;;;;;5014359;28;20073;-87
2022/11/30 04:19:14;;;;;;;;;;;13.50;63.50;;;;;;5005975;28;20045;-87
2022/11/30 04:21:40;;;;;;;;;;;13.40;63.70;;;;;;4994495;28;19916;-86
2022/11/30 04:24:06;;;;;;;;;;;13.40;63.70;;;;;;4994165;28;19935;-86
2022/11/30 04:26:31;;;;;;;;;;;13.30;63.80;;;;;;5012013;28;20379;-87
2022/11/30 04:28:57;;;;;;;;;;;13.30;64.00;;;;;;4994451;28;20505;-87
2022/11/30 04:31:22;;;;;;;;;;;13.30;63.80;;;;;;5018601;28;20033;-88
2022/11/30 04:33:51;;;;;;;;;;;13.30;64.00;;;;;;5020875;28;19913;-90
2022/11/30 04:36:18;;;;;;;;;;;13.30;64.00;;;;;;5015062;28;19917;-86
2022/11/30 04:38:44;;;;;;;;;;;13.30;63.90;;;;;;5029488;28;20520;-87
2022/11/30 04:41:09;;;;;;;;;;;13.30;63.80;;;;;;5008740;28;20363;-88
2022/11/30 04:43:35;;;;;;;;;;;13.30;63.70;;;;;;4994007;28;19914;-89
2022/11/30 04:46:01;;;;;;;;;;;13.30;63.80;;;;;;5009777;28;19924;-87
2022/11/30 04:48:27;;;;;;;;;;;13.30;63.90;;;;;;5013614;28;20311;-86
2022/11/30 04:50:52;;;;;;;;;;;13.30;64.00;;;;;;5013541;28;19933;-87
2022/11/30 04:53:18;;;;;;;;;;;13.30;63.90;;;;;;5010046;28;20375;-88
2022/11/30 04:55:44;;;;;;;;;;;13.30;64.00;;;;;;5017629;28;19917;-90
2022/11/30 04:58:09;;;;;;;;;;;13.30;64.10;;;;;;5013655;28;19909;-87
2022/11/30 05:00:35;;;;;;;;;;;13.30;64.00;;;;;;5031406;28;19921;-88
2022/11/30 05:03:01;;;;;;;;;;;13.40;64.10;;;;;;4999031;28;19909;-88
2022/11/30 05:05:27;;;;;;;;;;;13.40;64.10;;;;;;5004755;28;20383;-90
2022/11/30 05:07:56;;;;;;;;;;;13.40;64.00;;;;;;5038999;28;19991;-89
2022/11/30 05:10:22;;;;;;;;;;;13.40;64.00;;;;;;5014150;28;19923;-89
2022/11/30 05:12:49;;;;;;;;;;;13.40;63.90;;;;;;5017382;28;19917;-87
2022/11/30 05:15:14;;;;;;;;;;;13.30;63.80;;;;;;5013133;28;19964;-88
2022/11/30 05:17:40;;;;;;;;;;;13.30;63.70;;;;;;5044048;28;19940;-89
2022/11/30 05:20:06;;;;;;;;;;;13.30;63.80;;;;;;5033006;28;19928;-87
2022/11/30 05:22:33;;;;;;;;;;;13.30;63.80;;;;;;5013634;28;19914;-88
2022/11/30 05:24:59;;;;;;;;;;;13.20;63.70;;;;;;5031121;28;20000;-85
2022/11/30 05:27:25;;;;;;;;;;;13.20;63.80;;;;;;5030847;28;20380;-88
2022/11/30 05:29:50;;;;;;;;;;;13.20;63.70;;;;;;5013408;28;20355;-88
2022/11/30 05:32:19;;;;;;;;;;;13.20;63.80;;;;;;5013472;28;20029;-88
2022/11/30 05:34:44;;;;;;;;;;;13.20;63.90;;;;;;5019408;28;19917;-90
2022/11/30 05:37:10;;;;;;;;;;;13.20;63.80;;;;;;5013093;28;19909;-90
2022/11/30 05:39:43;;;;;;;;;;;13.10;63.80;;;;;;5012605;28;20269;-88
2022/11/30 05:42:09;;;;;;;;;;;13.10;63.80;;;;;;5011988;28;19913;-89
2022/11/30 05:44:34;;;;;;;;;;;13.10;63.80;;;;;;5008765;28;20279;-89
2022/11/30 05:47:00;;;;;;;;;;;13.10;63.80;;;;;;5000606;28;19914;-87
2022/11/30 05:49:25;;;;;;;;;;;13.10;63.90;;;;;;4998935;28;19922;-88
2022/11/30 05:51:51;;;;;;;;;;;13.00;63.80;;;;;;5025820;28;19920;-86
2022/11/30 05:54:16;;;;;;;;;;;13.00;63.70;;;;;;5013060;28;19917;-88
2022/11/30 05:56:42;;;;;;;;;;;13.00;63.90;;;;;;5012117;28;20008;-87
2022/11/30 05:59:08;;;;;;;;;;;13.10;64.10;;;;;;5016552;28;20431;-87
2022/11/30 06:01:57;;;;;;;;;;;13.10;64.00;;;;;;5037030;28;20364;-88
2022/11/30 06:04:29;;;;;;;;;;;13.10;63.80;;;;;;5025398;28;19917;-88
2022/11/30 06:06:54;;;;;;;;;;;13.10;63.90;;;;;;5013142;28;20288;-87
2022/11/30 06:09:20;;;;;;;;;;;13.10;63.80;;;;;;5010665;28;19920;-89
2022/11/30 06:14:33;;;;;;;;;;;13.10;63.70;;;;;;5026686;28;20250;-88
2022/11/30 06:16:58;;;;;;;;;;;13.10;63.70;;;;;;5033436;28;20023;-90
2022/11/30 06:19:24;;;;;;;;;;;13.10;63.80;;;;;;5034909;28;20003;-90
2022/11/30 06:21:52;;;;;;;;;;;13.10;63.70;;;;;;5017307;28;20383;-87
2022/11/30 06:24:18;;;;;;;;;;;13.10;63.60;;;;;;5053595;28;19952;-90
2022/11/30 06:26:43;;;;;;;;;;;13.10;63.50;;;;;;5055281;28;20010;-86
2022/11/30 06:29:09;;;;;;;;;;;13.10;63.50;;;;;;5049431;28;20345;-87
2022/11/30 06:31:35;;;;;;;;;;;13.10;63.50;;;;;;5015301;28;20423;-87
2022/11/30 06:34:00;;;;;;;;;;;13.10;63.40;;;;;;5024623;28;19935;-88
2022/11/30 06:36:26;;;;;;;;;;;13.00;63.50;;;;;;5018995;28;19929;-89
2022/11/30 06:38:55;;;;;;;;;;;13.00;63.60;;;;;;5032941;28;19995;-90
2022/11/30 06:41:21;;;;;;;;;;;13.00;63.60;;;;;;5016721;28;19966;-88
2022/11/30 06:43:47;;;;;;;;;;;13.10;63.60;;;;;;5013446;28;19913;-90
2022/11/30 06:46:13;;;;;;;;;;;13.00;63.50;;;;;;5032106;28;19956;-90
2022/11/30 06:48:38;;;;;;;;;;;13.10;63.70;;;;;;5014839;28;19913;-88
2022/11/30 06:51:05;;;;;;;;;;;13.10;63.60;;;;;;5034165;28;19976;-89
2022/11/30 06:53:33;;;;;;;;;;;13.10;63.70;;;;;;5033306;28;20016;-88
2022/11/30 06:55:58;;;;;;;;;;;13.10;63.60;;;;;;5033062;28;19917;-87
2022/11/30 06:58:24;;;;;;;;;;;13.10;63.60;;;;;;5015871;28;19921;-88
2022/11/30 07:00:49;;;;;;;;;;;13.10;63.60;;;;;;5018397;28;20368;-89
2022/11/30 07:03:15;;;;;;;;;;;13.10;63.60;;;;;;5011705;28;20023;-88
2022/11/30 07:05:42;;;;;;;;;;;13.10;63.70;;;;;;5033466;28;20000;-89
2022/11/30 07:08:08;;;;;;;;;;;13.10;63.60;;;;;;5012671;28;19917;-90
2022/11/30 07:10:37;;;;;;;;;;;13.10;63.70;;;;;;5014073;28;20265;-89
2022/11/30 07:13:03;;;;;;;;;;;13.10;63.70;;;;;;5048050;28;19920;-90
2022/11/30 07:15:29;;;;;;;;;;;13.10;63.60;;;;;;5021988;28;19939;-87
2022/11/30 07:17:55;;;;;;;;;;;13.10;63.70;;;;;;5053734;28;19909;-90
2022/11/30 07:20:20;;;;;;;;;;;13.10;63.70;;;;;;5034955;28;20321;-87
2022/11/30 07:22:46;;;;;;;;;;;13.10;63.70;;;;;;5038544;28;20396;-90
2022/11/30 07:27:58;;;;;;;;;;;13.10;63.90;;;;;;5041862;28;19920;-90
2022/11/30 07:30:24;;;;;;;;;;;13.10;63.90;;;;;;5048710;28;19928;-87
2022/11/30 07:32:49;;;;;;;;;;;13.10;63.90;;;;;;5014013;28;19917;-89
2022/11/30 07:35:15;;;;;;;;;;;13.10;63.90;;;;;;5039818;28;19975;-89
2022/11/30 07:37:40;;;;;;;;;;;13.10;63.90;;;;;;5014688;28;19916;-89
2022/11/30 07:40:06;;;;;;;;;;;13.10;63.90;;;;;;5014366;28;19921;-90
2022/11/30 07:42:32;;;;;;;;;;;13.10;64.00;;;;;;5032107;28;19910;-87
2022/11/30 07:44:58;;;;;;;;;;;13.20;63.90;;;;;;5031707;28;19924;-89
2022/11/30 07:47:23;;;;;;;;;;;13.20;63.90;;;;;;5031791;28;19959;-87
2022/11/30 07:49:49;;;;;;;;;;;13.20;63.90;;;;;;5033739;28;20404;-86
2022/11/30 07:52:17;;;;;;;;;;;13.20;63.90;;;;;;5031612;28;19928;-88
2022/11/30 07:54:42;;;;;;;;;;;13.20;63.90;;;;;;5033637;28;19924;-88
2022/11/30 07:57:08;;;;;;;;;;;13.30;63.90;;;;;;5030455;28;19913;-86
2022/11/30 07:59:33;;;;;;;;;;;13.30;63.90;;;;;;5031137;28;19999;-90
2022/11/30 08:01:59;;;;;;;;;;;13.30;63.70;;;;;;5031211;28;20257;-88
2022/11/30 08:04:25;;;;;;;;;;;13.20;63.90;;;;;;5031664;28;20453;-86
2022/11/30 08:06:51;;;;;;;;;;;13.20;63.90;;;;;;5030438;28;19920;-87
2022/11/30 08:09:17;;;;;;;;;;;13.20;63.90;;;;;;5033508;28;19929;-89
2022/11/30 08:11:45;;;;;;;;;;;13.20;63.80;;;;;;5031488;28;19940;-89
2022/11/30 08:14:12;;;;;;;;;;;13.30;64.00;;;;;;5030600;28;20004;-90
2022/11/30 08:16:38;;;;;;;;;;;13.30;64.00;;;;;;5017168;28;19980;-88
2022/11/30 08:19:04;;;;;;;;;;;13.30;63.90;;;;;;5030539;28;20299;-87
2022/11/30 08:21:31;;;;;;;;;;;13.30;63.90;;;;;;5030566;28;19913;-87
2022/11/30 08:23:56;;;;;;;;;;;13.30;64.00;;;;;;5012567;28;19929;-89
2022/11/30 08:26:26;;;;;;;;;;;13.30;64.10;;;;;;5030226;28;20029;-87
2022/11/30 08:28:53;;;;;;;;;;;13.30;63.90;;;;;;5030338;28;19944;-88
2022/11/30 08:31:28;;;;;;;;;;;13.30;63.80;;;;;;5013859;28;19921;-87
2022/11/30 08:33:58;;;;;;;;;;;13.30;63.90;;;;;;5042206;28;19940;-90
2022/11/30 08:36:24;;;;;;;;;;;13.30;63.90;;;;;;5027535;28;19921;-89
2022/11/30 08:38:50;;;;;;;;;;;13.20;63.90;;;;;;5025854;28;20279;-90
2022/11/30 08:41:18;;;;;;;;;;;13.30;64.10;;;;;;5025282;28;19917;-87
2022/11/30 08:43:43;;;;;;;;;;;13.20;64.00;;;;;;5026686;28;19921;-86
2022/11/30 08:46:10;;;;;;;;;;;13.30;64.00;;;;;;5026853;28;19990;-89
2022/11/30 08:48:57;;;;;;;;;;;13.20;64.00;;;;;;5008118;28;19925;-87
2022/11/30 08:51:22;;;;;;;;;;;13.30;63.80;;;;;;4952656;28;2045810;-88
2022/11/30 08:53:48;;;;;;;;;;;13.20;63.80;;;;;;5010396;28;20303;-88
2022/11/30 08:56:17;;;;;;;;;;;13.20;63.80;;;;;;5011669;28;20388;-88
2022/11/30 08:58:43;;;;;;;;;;;13.20;63.90;;;;;;5026843;28;19924;-87
2022/11/30 09:01:09;;;;;;;;;;;13.20;64.00;;;;;;5029553;28;20391;-89
2022/11/30 09:03:38;;;;;;;;;;;13.20;64.20;;;;;;5027441;28;19917;-88
2022/11/30 09:06:07;;;;;;;;;;;13.20;64.20;;;;;;5009602;28;20411;-87
2022/11/30 09:08:33;;;;;;;;;;;13.30;64.10;;;;;;5027148;28;20372;-90
2022/11/30 09:11:06;;;;;;;;;;;13.20;63.80;;;;;;5009427;28;20395;-89
2022/11/30 09:13:32;;;;;;;;;;;13.20;64.00;;;;;;5021713;28;20004;-89
2022/11/30 09:15:58;;;;;;;;;;;13.30;64.10;;;;;;5026942;28;20011;-89
2022/11/30 09:18:23;;;;;;;;;;;13.30;64.10;;;;;;5026544;28;19916;-91
2022/11/30 09:20:49;;;;;;;;;;;13.30;64.20;;;;;;5026807;28;19917;-90
2022/11/30 09:23:15;;;;;;;;;;;13.40;63.90;;;;;;5009079;28;20388;-88
2022/11/30 09:25:40;;;;;;;;;;;13.40;63.90;;;;;;5027477;28;19917;-88
2022/11/30 09:28:06;;;;;;;;;;;13.40;63.90;;;;;;5027283;28;20088;-90
2022/11/30 09:30:32;;;;;;;;;;;13.40;63.80;;;;;;5008869;28;19921;-88
2022/11/30 09:33:00;;;;;;;;;;;13.40;63.60;;;;;;5009001;28;20356;-89
2022/11/30 09:35:26;;;;;;;;;;;13.40;63.60;;;;;;5019379;28;20007;-89
2022/11/30 09:37:52;;;;;;;;;;;13.40;63.50;;;;;;5005254;28;19965;-90
2022/11/30 09:40:18;;;;;;;;;;;13.40;63.40;;;;;;5008121;28;19929;-87
2022/11/30 09:42:54;;;;;;;;;;;13.30;63.50;;;;;;5026305;28;20404;-91
2022/11/30 09:45:27;;;;;;;;;;;13.30;63.50;;;;;;5009561;28;19917;-90
2022/11/30 09:48:08;;;;;;;;;;;13.30;63.60;;;;;;5030725;28;19975;-90
2022/11/30 09:50:37;;;;;;;;;;;13.30;63.40;;;;;;5031038;28;20015;-89
2022/11/30 09:53:08;;;;;;;;;;;13.30;63.50;;;;;;5030682;28;20004;-89
2022/11/30 09:55:41;;;;;;;;;;;13.30;63.50;;;;;;5012978;28;19917;-91
2022/11/30 09:58:14;;;;;;;;;;;13.30;63.40;;;;;;5011813;28;20039;-88
2022/11/30 10:00:40;;;;;;;;;;;13.30;63.40;;;;;;5026920;28;19917;-86
2022/11/30 10:03:06;;;;;;;;;;;13.30;63.50;;;;;;5030135;28;20414;-88
2022/11/30 10:05:50;;;;;;;;;;;13.30;63.60;;;;;;5012193;28;20347;-87
2022/11/30 10:08:44;;;;;;;;;;;13.30;63.50;;;;;;5011726;28;20343;-87
2022/11/30 10:11:18;;;;;;;;;;;13.30;63.30;;;;;;5011834;28;20028;-90
2022/11/30 10:13:58;;;;;;;;;;;13.30;63.50;;;;;;5030150;28;19921;-88
2022/11/30 10:16:42;;;;;;;;;;;13.30;63.60;;;;;;5029826;28;19991;-90
2022/11/30 10:19:08;;;;;;;;;;;13.30;63.40;;;;;;5027216;28;19921;-87
2022/11/30 10:21:55;;;;;;;;;;;13.20;63.30;;;;;;5011972;28;19917;-90
2022/11/30 10:24:31;;;;;;;;;;;13.20;63.30;;;;;;5011788;28;20409;-90
2022/11/30 10:26:57;;;;;;;;;;;13.20;63.20;;;;;;5031247;28;19921;-90
2022/11/30 10:29:22;;;;;;;;;;;13.20;63.30;;;;;;5011250;28;19917;-90
2022/11/30 10:31:50;;;;;;;;;;;13.20;63.30;;;;;;5011052;28;20310;-89
2022/11/30 10:34:23;;;;;;;;;;;13.20;63.20;;;;;;5012494;28;19932;-88
2022/11/30 10:36:53;;;;;;;;;;;13.20;63.30;;;;;;5011009;28;19917;-87
2022/11/30 10:39:25;;;;;;;;;;;13.20;63.30;;;;;;5014003;28;20011;-88
2022/11/30 10:41:54;;;;;;;;;;;13.20;63.40;;;;;;5032129;28;19939;-90
2022/11/30 10:44:33;;;;;;;;;;;13.20;63.50;;;;;;5040793;28;20024;-88
2022/11/30 10:47:01;;;;;;;;;;;13.20;63.50;;;;;;5029699;28;19940;-90
2022/11/30 10:49:28;;;;;;;;;;;13.30;63.50;;;;;;5029985;28;19921;-88
2022/11/30 10:51:56;;;;;;;;;;;13.30;63.50;;;;;;5029292;28;19925;-88
2022/11/30 10:54:22;;;;;;;;;;;13.30;63.40;;;;;;5012460;28;19968;-88
2022/11/30 10:56:48;;;;;;;;;;;13.30;63.50;;;;;;5041893;28;20397;-87
2022/11/30 10:59:21;;;;;;;;;;;13.30;63.60;;;;;;5029704;28;19928;-87
2022/11/30 11:01:47;;;;;;;;;;;13.40;63.60;;;;;;5012205;28;19917;-89
2022/11/30 11:04:15;;;;;;;;;;;13.40;63.40;;;;;;5010312;28;19960;-90
2022/11/30 11:07:05;;;;;;;;;;;13.40;63.00;;;;;;5010362;28;20036;-88
2022/11/30 11:09:35;;;;;;;;;;;13.40;62.90;;;;;;5011042;28;19921;-91
2022/11/30 11:12:05;;;;;;;;;;;13.30;62.90;;;;;;5009992;28;19925;-88
2022/11/30 11:14:34;;;;;;;;;;;13.30;63.00;;;;;;5011591;28;19928;-88
2022/11/30 11:17:02;;;;;;;;;;;13.30;63.00;;;;;;5007822;28;19924;-87
2022/11/30 11:19:32;;;;;;;;;;;13.30;63.10;;;;;;5009047;28;19933;-91
2022/11/30 11:21:59;;;;;;;;;;;13.30;63.10;;;;;;5027626;28;19921;-89
2022/11/30 11:24:25;;;;;;;;;;;13.30;63.10;;;;;;5029344;28;19921;-90
2022/11/30 11:26:52;;;;;;;;;;;13.40;63.20;;;;;;5009944;28;19965;-87
2022/11/30 11:29:30;;;;;;;;;;;13.30;63.00;;;;;;5012420;28;20337;-89
2022/11/30 11:32:06;;;;;;;;;;;13.40;63.00;;;;;;5011145;28;19929;-91
2022/11/30 11:34:33;;;;;;;;;;;13.40;63.00;;;;;;5022306;28;19921;-88
2022/11/30 11:37:18;;;;;;;;;;;13.30;63.10;;;;;;5011008;28;19916;-91
2022/11/30 11:39:54;;;;;;;;;;;13.30;63.20;;;;;;5010468;28;19921;-89
2022/11/30 11:42:20;;;;;;;;;;;13.30;63.20;;;;;;5028156;28;20283;-90
2022/11/30 11:44:49;;;;;;;;;;;13.40;63.40;;;;;;5010480;28;20413;-88
2022/11/30 11:47:23;;;;;;;;;;;13.40;63.20;;;;;;5009937;28;19917;-88
2022/11/30 11:49:49;;;;;;;;;;;13.40;63.20;;;;;;5027529;28;20049;-88
2022/11/30 11:52:19;;;;;;;;;;;13.40;63.00;;;;;;5010235;28;19971;-90
2022/11/30 11:54:50;;;;;;;;;;;13.40;62.80;;;;;;5010075;28;19921;-89
2022/11/30 11:57:18;;;;;;;;;;;13.40;62.70;;;;;;5010352;28;19932;-88
2022/11/30 11:59:55;;;;;;;;;;;13.30;62.60;;;;;;5008999;28;20462;-91
2022/11/30 12:02:27;;;;;;;;;;;13.30;62.60;;;;;;5027644;28;20390;-89
2022/11/30 12:04:58;;;;;;;;;;;13.30;62.60;;;;;;5009227;28;20305;-90
2022/11/30 12:07:23;;;;;;;;;;;13.30;62.80;;;;;;5009668;28;20224;-89
2022/11/30 12:09:55;;;;;;;;;;;13.30;63.00;;;;;;5009026;28;19980;-88
2022/11/30 12:12:21;;;;;;;;;;;13.30;62.80;;;;;;5010539;28;19932;-90
2022/11/30 12:14:48;;;;;;;;;;;13.20;62.60;;;;;;5028344;28;19925;-87
2022/11/30 12:17:24;;;;;;;;;;;13.20;62.90;;;;;;5046790;28;19967;-87
2022/11/30 12:19:55;;;;;;;;;;;13.20;63.00;;;;;;5028956;28;19980;-87
2022/11/30 12:22:24;;;;;;;;;;;13.20;63.10;;;;;;5028298;28;20408;-90
2022/11/30 12:24:50;;;;;;;;;;;13.30;63.30;;;;;;5027313;28;19917;-87
2022/11/30 12:27:28;;;;;;;;;;;13.30;63.00;;;;;;5027455;28;19917;-87
2022/11/30 12:29:53;;;;;;;;;;;13.30;63.10;;;;;;5009098;28;19921;-90
2022/11/30 12:32:28;;;;;;;;;;;13.30;63.00;;;;;;5010441;28;19928;-89
2022/11/30 12:35:05;;;;;;;;;;;13.30;62.80;;;;;;5026995;28;20315;-88
2022/11/30 12:37:51;;;;;;;;;;;13.30;62.90;;;;;;5009584;28;19977;-89
2022/11/30 12:40:28;;;;;;;;;;;13.30;63.00;;;;;;5017542;28;19956;-87
2022/11/30 12:42:54;;;;;;;;;;;13.30;63.10;;;;;;5027595;28;20007;-89
2022/11/30 12:45:25;;;;;;;;;;;13.30;62.80;;;;;;5010010;28;19917;-90
2022/11/30 12:48:04;;;;;;;;;;;13.20;63.00;;;;;;5027322;28;19917;-88
2022/11/30 12:50:48;;;;;;;;;;;13.20;63.00;;;;;;5010282;28;20291;-88
2022/11/30 12:53:17;;;;;;;;;;;13.20;63.10;;;;;;5010252;28;20206;-87
2022/11/30 12:55:58;;;;;;;;;;;13.30;63.20;;;;;;5027901;28;19924;-87
2022/11/30 12:58:42;;;;;;;;;;;13.30;62.90;;;;;;5008656;28;19928;-90
2022/11/30 13:01:23;;;;;;;;;;;13.20;62.80;;;;;;5009343;28;19924;-89
2022/11/30 13:04:12;;;;;;;;;;;13.20;63.00;;;;;;5010209;28;19925;-89
2022/11/30 13:06:40;;;;;;;;;;;13.20;63.00;;;;;;5026941;28;19925;-90
2022/11/30 13:09:16;;;;;;;;;;;13.20;63.00;;;;;;5027791;28;20207;-91
2022/11/30 13:11:47;;;;;;;;;;;13.20;62.90;;;;;;5027948;28;20012;-90
2022/11/30 13:14:17;;;;;;;;;;;13.10;62.90;;;;;;5027063;28;19921;-90
2022/11/30 13:16:45;;;;;;;;;;;13.10;62.80;;;;;;5007539;28;19972;-88
2022/11/30 13:19:27;;;;;;;;;;;13.10;62.80;;;;;;5008304;28;20518;-90
2022/11/30 13:21:56;;;;;;;;;;;13.10;62.80;;;;;;4995655;28;19917;-90
2022/11/30 13:24:27;;;;;;;;;;;13.10;62.80;;;;;;5009532;28;19944;-88
2022/11/30 13:26:59;;;;;;;;;;;13.00;62.90;;;;;;5015658;28;19940;-88
2022/11/30 13:29:40;;;;;;;;;;;13.00;62.80;;;;;;5029235;28;19948;-89
2022/11/30 13:32:15;;;;;;;;;;;13.00;62.90;;;;;;5028794;28;19925;-89
2022/11/30 13:35:07;;;;;;;;;;;12.90;63.10;;;;;;5016830;28;20266;-89
2022/11/30 13:37:36;;;;;;;;;;;12.90;62.80;;;;;;5022958;28;19917;-90
2022/11/30 13:40:02;;;;;;;;;;;12.90;62.80;;;;;;5029046;28;20257;-91
2022/11/30 13:42:28;;;;;;;;;;;12.90;62.80;;;;;;5027123;28;19968;-87
2022/11/30 13:44:53;;;;;;;;;;;12.80;62.90;;;;;;5009481;28;19917;-89
2022/11/30 13:47:28;;;;;;;;;;;12.80;62.80;;;;;;5009461;28;19917;-89
2022/11/30 13:49:55;;;;;;;;;;;12.80;62.80;;;;;;5027240;28;19917;-89
2022/11/30 13:52:41;;;;;;;;;;;12.80;62.90;;;;;;5023653;28;19972;-92
2022/11/30 13:55:25;;;;;;;;;;;12.70;62.90;;;;;;5011106;28;19921;-91
2022/11/30 13:57:53;;;;;;;;;;;12.70;62.90;;;;;;5027495;28;19917;-92
2022/11/30 14:00:31;;;;;;;;;;;12.70;62.90;;;;;;5027313;28;20328;-88
2022/11/30 14:03:25;;;;;;;;;;;12.70;63.00;;;;;;5026334;28;20530;-91
2022/11/30 14:05:50;;;;;;;;;;;12.70;63.20;;;;;;5025263;28;19917;-90
2022/11/30 14:08:26;;;;;;;;;;;;;;;;;;;;;
2022/11/30 14:11:23;;;;;;;;;;;12.70;63.10;;;;;;5038543;28;19921;-90
2022/11/30 14:13:49;;;;;;;;;;;12.70;63.00;;;;;;5006646;28;19983;-90
2022/11/30 14:16:23;;;;;;;;;;;12.70;62.90;;;;;;5026441;28;19927;-88
2022/11/30 14:18:53;;;;;;;;;;;12.70;62.90;;;;;;5025678;28;19917;-87
2022/11/30 14:21:30;;;;;;;;;;;12.60;63.00;;;;;;5008836;28;19917;-88
2022/11/30 14:23:55;;;;;;;;;;;12.60;63.20;;;;;;5026862;28;19917;-88
2022/11/30 14:26:25;;;;;;;;;;;12.60;63.00;;;;;;5027316;28;19921;-91
2022/11/30 14:29:24;;;;;;;;;;;12.60;63.00;;;;;;5046799;28;19917;-90
2022/11/30 14:31:56;;;;;;;;;;;12.50;63.00;;;;;;5028826;28;19925;-88
2022/11/30 14:34:27;;;;;;;;;;;12.50;63.10;;;;;;5019904;28;19988;-90